sensor_id;sensor_type;location;lat;lon;timestamp;P1;durP1;ratioP1;P2;durP2;ratioP2
65206;SDS011;58477;48.072;11.970;2023-07-16T00:00:49;5.65;;;2.50;;
65206;SDS011;58477;48.072;11.970;2023-07-16T00:03:15;3.85;;;2.60;;
65206;SDS011;58477;48.072;11.970;2023-07-16T00:05:40;2.72;;;2.35;;
65206;SDS011;58477;48.072;11.970;2023-07-16T00:08:06;2.03;;;1.90;;
65206;SDS011;58477;48.072;11.970;2023-07-16T00:10:35;4.38;;;2.63;;
65206;SDS011;58477;48.072;11.970;2023-07-16T00:13:01;3.72;;;2.65;;
65206;SDS011;58477;48.072;11.970;2023-07-16T00:15:28;2.83;;;2.53;;
65206;SDS011;58477;48.072;11.970;2023-07-16T00:17:53;7.63;;;2.60;;
65206;SDS011;58477;48.072;11.970;2023-07-16T00:20:20;3.58;;;2.38;;
65206;SDS011;58477;48.072;11.970;2023-07-16T00:22:45;2.75;;;2.55;;
65206;SDS011;58477;48.072;11.970;2023-07-16T00:25:11;9.00;;;2.42;;
65206;SDS011;58477;48.072;11.970;2023-07-16T00:27:36;3.00;;;2.47;;
65206;SDS011;58477;48.072;11.970;2023-07-16T00:30:02;5.45;;;2.30;;
65206;SDS011;58477;48.072;11.970;2023-07-16T00:32:28;3.50;;;2.53;;
65206;SDS011;58477;48.072;11.970;2023-07-16T00:34:53;3.75;;;2.60;;
65206;SDS011;58477;48.072;11.970;2023-07-16T00:37:19;2.97;;;2.50;;
65206;SDS011;58477;48.072;11.970;2023-07-16T00:39:44;8.77;;;2.53;;
65206;SDS011;58477;48.072;11.970;2023-07-16T00:42:10;5.72;;;2.80;;
65206;SDS011;58477;48.072;11.970;2023-07-16T00:44:35;3.05;;;2.70;;
65206;SDS011;58477;48.072;11.970;2023-07-16T00:47:02;3.72;;;2.60;;
65206;SDS011;58477;48.072;11.970;2023-07-16T00:49:27;3.13;;;2.70;;
65206;SDS011;58477;48.072;11.970;2023-07-16T00:51:54;3.03;;;2.72;;
65206;SDS011;58477;48.072;11.970;2023-07-16T00:54:20;4.68;;;2.63;;
65206;SDS011;58477;48.072;11.970;2023-07-16T00:56:45;3.45;;;2.33;;
65206;SDS011;58477;48.072;11.970;2023-07-16T00:59:11;4.88;;;2.40;;
65206;SDS011;58477;48.072;11.970;2023-07-16T01:01:37;2.50;;;2.30;;
65206;SDS011;58477;48.072;11.970;2023-07-16T01:04:04;2.97;;;2.53;;
65206;SDS011;58477;48.072;11.970;2023-07-16T01:06:33;3.17;;;2.60;;
65206;SDS011;58477;48.072;11.970;2023-07-16T01:09:03;3.00;;;2.45;;
65206;SDS011;58477;48.072;11.970;2023-07-16T01:11:37;3.72;;;2.72;;
65206;SDS011;58477;48.072;11.970;2023-07-16T01:14:05;4.00;;;2.60;;
65206;SDS011;58477;48.072;11.970;2023-07-16T01:16:33;5.25;;;2.53;;
65206;SDS011;58477;48.072;11.970;2023-07-16T01:18:58;5.57;;;2.50;;
65206;SDS011;58477;48.072;11.970;2023-07-16T01:21:24;4.93;;;2.60;;
65206;SDS011;58477;48.072;11.970;2023-07-16T01:31:21;2.47;;;2.28;;
65206;SDS011;58477;48.072;11.970;2023-07-16T01:33:48;2.63;;;2.42;;
65206;SDS011;58477;48.072;11.970;2023-07-16T01:36:15;9.30;;;2.75;;
65206;SDS011;58477;48.072;11.970;2023-07-16T01:38:42;7.70;;;2.70;;
65206;SDS011;58477;48.072;11.970;2023-07-16T01:41:08;4.00;;;2.95;;
65206;SDS011;58477;48.072;11.970;2023-07-16T01:43:34;4.35;;;2.90;;
65206;SDS011;58477;48.072;11.970;2023-07-16T01:45:59;4.22;;;2.90;;
65206;SDS011;58477;48.072;11.970;2023-07-16T01:48:29;3.45;;;2.95;;
65206;SDS011;58477;48.072;11.970;2023-07-16T01:50:56;6.25;;;3.00;;
65206;SDS011;58477;48.072;11.970;2023-07-16T01:53:21;7.05;;;3.45;;
65206;SDS011;58477;48.072;11.970;2023-07-16T01:55:47;7.25;;;3.10;;
65206;SDS011;58477;48.072;11.970;2023-07-16T01:58:12;4.55;;;2.42;;
65206;SDS011;58477;48.072;11.970;2023-07-16T02:00:38;5.38;;;3.15;;
65206;SDS011;58477;48.072;11.970;2023-07-16T02:03:04;4.28;;;2.95;;
65206;SDS011;58477;48.072;11.970;2023-07-16T02:05:30;5.57;;;2.67;;
65206;SDS011;58477;48.072;11.970;2023-07-16T02:07:56;2.85;;;2.60;;
65206;SDS011;58477;48.072;11.970;2023-07-16T02:10:22;4.20;;;2.80;;
65206;SDS011;58477;48.072;11.970;2023-07-16T02:12:47;4.88;;;3.38;;
65206;SDS011;58477;48.072;11.970;2023-07-16T02:15:13;4.78;;;2.90;;
65206;SDS011;58477;48.072;11.970;2023-07-16T02:17:41;4.35;;;3.60;;
65206;SDS011;58477;48.072;11.970;2023-07-16T02:20:08;4.95;;;3.13;;
65206;SDS011;58477;48.072;11.970;2023-07-16T02:22:35;3.78;;;2.78;;
65206;SDS011;58477;48.072;11.970;2023-07-16T02:25:01;4.30;;;3.47;;
65206;SDS011;58477;48.072;11.970;2023-07-16T02:27:27;5.13;;;3.10;;
65206;SDS011;58477;48.072;11.970;2023-07-16T02:29:53;4.47;;;3.17;;
65206;SDS011;58477;48.072;11.970;2023-07-16T02:32:18;5.53;;;3.17;;
65206;SDS011;58477;48.072;11.970;2023-07-16T02:34:44;3.95;;;3.28;;
65206;SDS011;58477;48.072;11.970;2023-07-16T02:37:09;7.00;;;3.47;;
65206;SDS011;58477;48.072;11.970;2023-07-16T02:39:35;3.65;;;3.00;;
65206;SDS011;58477;48.072;11.970;2023-07-16T02:42:00;5.68;;;3.58;;
65206;SDS011;58477;48.072;11.970;2023-07-16T02:44:25;3.42;;;3.03;;
65206;SDS011;58477;48.072;11.970;2023-07-16T02:46:51;6.47;;;3.38;;
65206;SDS011;58477;48.072;11.970;2023-07-16T02:49:16;4.32;;;3.10;;
65206;SDS011;58477;48.072;11.970;2023-07-16T02:51:42;5.32;;;3.50;;
65206;SDS011;58477;48.072;11.970;2023-07-16T02:54:07;4.13;;;3.22;;
65206;SDS011;58477;48.072;11.970;2023-07-16T02:56:33;3.92;;;3.40;;
65206;SDS011;58477;48.072;11.970;2023-07-16T02:58:59;4.55;;;3.38;;
65206;SDS011;58477;48.072;11.970;2023-07-16T03:01:25;6.70;;;3.13;;
65206;SDS011;58477;48.072;11.970;2023-07-16T03:03:50;3.78;;;3.30;;
65206;SDS011;58477;48.072;11.970;2023-07-16T03:06:16;4.20;;;3.40;;
65206;SDS011;58477;48.072;11.970;2023-07-16T03:08:41;5.07;;;4.13;;
65206;SDS011;58477;48.072;11.970;2023-07-16T03:11:07;4.03;;;3.20;;
65206;SDS011;58477;48.072;11.970;2023-07-16T03:13:34;5.43;;;3.75;;
65206;SDS011;58477;48.072;11.970;2023-07-16T03:15:59;4.53;;;3.28;;
65206;SDS011;58477;48.072;11.970;2023-07-16T03:18:29;6.40;;;3.33;;
65206;SDS011;58477;48.072;11.970;2023-07-16T03:20:55;6.72;;;3.30;;
65206;SDS011;58477;48.072;11.970;2023-07-16T03:23:21;5.03;;;3.08;;
65206;SDS011;58477;48.072;11.970;2023-07-16T03:25:48;3.75;;;3.30;;
65206;SDS011;58477;48.072;11.970;2023-07-16T03:28:13;4.15;;;3.00;;
65206;SDS011;58477;48.072;11.970;2023-07-16T03:30:39;5.30;;;3.35;;
65206;SDS011;58477;48.072;11.970;2023-07-16T03:33:05;3.65;;;3.10;;
65206;SDS011;58477;48.072;11.970;2023-07-16T03:35:30;4.90;;;2.97;;
65206;SDS011;58477;48.072;11.970;2023-07-16T03:37:56;3.65;;;3.25;;
65206;SDS011;58477;48.072;11.970;2023-07-16T03:40:25;3.72;;;3.17;;
65206;SDS011;58477;48.072;11.970;2023-07-16T03:42:51;6.05;;;2.92;;
65206;SDS011;58477;48.072;11.970;2023-07-16T03:45:17;4.68;;;3.08;;
65206;SDS011;58477;48.072;11.970;2023-07-16T03:47:42;4.10;;;2.90;;
65206;SDS011;58477;48.072;11.970;2023-07-16T03:50:08;4.40;;;3.25;;
65206;SDS011;58477;48.072;11.970;2023-07-16T03:52:34;3.45;;;3.08;;
65206;SDS011;58477;48.072;11.970;2023-07-16T03:54:59;5.63;;;3.05;;
65206;SDS011;58477;48.072;11.970;2023-07-16T03:57:26;5.05;;;3.30;;
65206;SDS011;58477;48.072;11.970;2023-07-16T03:59:53;3.70;;;3.25;;
65206;SDS011;58477;48.072;11.970;2023-07-16T04:02:19;3.75;;;3.08;;
65206;SDS011;58477;48.072;11.970;2023-07-16T04:04:44;4.78;;;3.15;;
65206;SDS011;58477;48.072;11.970;2023-07-16T04:07:10;4.72;;;3.60;;
65206;SDS011;58477;48.072;11.970;2023-07-16T04:09:38;5.40;;;3.65;;
65206;SDS011;58477;48.072;11.970;2023-07-16T04:12:05;8.95;;;3.60;;
65206;SDS011;58477;48.072;11.970;2023-07-16T04:14:31;5.00;;;3.92;;
65206;SDS011;58477;48.072;11.970;2023-07-16T04:16:57;4.25;;;3.75;;
65206;SDS011;58477;48.072;11.970;2023-07-16T04:19:22;4.70;;;3.67;;
65206;SDS011;58477;48.072;11.970;2023-07-16T04:21:48;7.97;;;4.05;;
65206;SDS011;58477;48.072;11.970;2023-07-16T04:24:13;4.50;;;3.28;;
65206;SDS011;58477;48.072;11.970;2023-07-16T04:26:39;4.25;;;3.00;;
65206;SDS011;58477;48.072;11.970;2023-07-16T04:29:04;5.90;;;2.92;;
65206;SDS011;58477;48.072;11.970;2023-07-16T04:31:30;3.60;;;2.53;;
65206;SDS011;58477;48.072;11.970;2023-07-16T04:33:55;3.47;;;2.58;;
65206;SDS011;58477;48.072;11.970;2023-07-16T04:36:21;4.05;;;2.72;;
65206;SDS011;58477;48.072;11.970;2023-07-16T04:38:46;4.65;;;2.85;;
65206;SDS011;58477;48.072;11.970;2023-07-16T04:41:12;4.38;;;2.45;;
65206;SDS011;58477;48.072;11.970;2023-07-16T04:43:38;2.75;;;2.20;;
65206;SDS011;58477;48.072;11.970;2023-07-16T04:46:03;2.95;;;2.20;;
65206;SDS011;58477;48.072;11.970;2023-07-16T04:48:29;3.13;;;2.40;;
65206;SDS011;58477;48.072;11.970;2023-07-16T04:50:54;3.80;;;2.08;;
65206;SDS011;58477;48.072;11.970;2023-07-16T04:53:20;3.53;;;2.17;;
65206;SDS011;58477;48.072;11.970;2023-07-16T04:55:47;2.33;;;2.13;;
65206;SDS011;58477;48.072;11.970;2023-07-16T04:58:12;2.22;;;2.03;;
65206;SDS011;58477;48.072;11.970;2023-07-16T05:00:38;3.15;;;1.92;;
65206;SDS011;58477;48.072;11.970;2023-07-16T05:03:05;4.72;;;2.65;;
65206;SDS011;58477;48.072;11.970;2023-07-16T05:05:30;5.05;;;2.60;;
65206;SDS011;58477;48.072;11.970;2023-07-16T05:07:56;4.00;;;2.88;;
65206;SDS011;58477;48.072;11.970;2023-07-16T05:10:21;11.80;;;4.05;;
65206;SDS011;58477;48.072;11.970;2023-07-16T05:12:47;6.40;;;3.25;;
65206;SDS011;58477;48.072;11.970;2023-07-16T05:15:12;5.22;;;3.00;;
65206;SDS011;58477;48.072;11.970;2023-07-16T05:17:38;5.40;;;3.35;;
65206;SDS011;58477;48.072;11.970;2023-07-16T05:20:04;8.65;;;3.40;;
65206;SDS011;58477;48.072;11.970;2023-07-16T05:22:30;4.38;;;3.10;;
65206;SDS011;58477;48.072;11.970;2023-07-16T05:24:55;2.90;;;2.15;;
65206;SDS011;58477;48.072;11.970;2023-07-16T05:27:21;2.80;;;2.50;;
65206;SDS011;58477;48.072;11.970;2023-07-16T05:29:46;5.63;;;2.97;;
65206;SDS011;58477;48.072;11.970;2023-07-16T05:32:13;5.03;;;2.53;;
65206;SDS011;58477;48.072;11.970;2023-07-16T05:34:38;3.30;;;2.95;;
65206;SDS011;58477;48.072;11.970;2023-07-16T05:37:04;4.00;;;2.70;;
65206;SDS011;58477;48.072;11.970;2023-07-16T05:39:30;3.83;;;2.35;;
65206;SDS011;58477;48.072;11.970;2023-07-16T05:41:55;7.82;;;3.03;;
65206;SDS011;58477;48.072;11.970;2023-07-16T05:44:21;3.17;;;2.70;;
65206;SDS011;58477;48.072;11.970;2023-07-16T05:46:46;3.72;;;3.03;;
65206;SDS011;58477;48.072;11.970;2023-07-16T05:49:13;3.97;;;3.00;;
65206;SDS011;58477;48.072;11.970;2023-07-16T05:51:38;4.28;;;3.00;;
65206;SDS011;58477;48.072;11.970;2023-07-16T05:54:04;3.22;;;2.63;;
65206;SDS011;58477;48.072;11.970;2023-07-16T05:56:29;3.47;;;2.65;;
65206;SDS011;58477;48.072;11.970;2023-07-16T05:58:55;4.80;;;2.60;;
65206;SDS011;58477;48.072;11.970;2023-07-16T06:01:21;3.58;;;1.98;;
65206;SDS011;58477;48.072;11.970;2023-07-16T06:03:47;3.08;;;1.67;;
65206;SDS011;58477;48.072;11.970;2023-07-16T06:06:12;7.47;;;1.95;;
65206;SDS011;58477;48.072;11.970;2023-07-16T06:08:38;1.70;;;1.38;;
65206;SDS011;58477;48.072;11.970;2023-07-16T06:11:03;1.75;;;1.65;;
65206;SDS011;58477;48.072;11.970;2023-07-16T06:13:29;2.28;;;1.77;;
65206;SDS011;58477;48.072;11.970;2023-07-16T06:15:55;2.67;;;2.05;;
65206;SDS011;58477;48.072;11.970;2023-07-16T06:18:20;3.03;;;2.20;;
65206;SDS011;58477;48.072;11.970;2023-07-16T06:20:46;2.45;;;1.75;;
65206;SDS011;58477;48.072;11.970;2023-07-16T06:23:11;8.82;;;1.90;;
65206;SDS011;58477;48.072;11.970;2023-07-16T06:25:38;2.72;;;2.53;;
65206;SDS011;58477;48.072;11.970;2023-07-16T06:28:05;5.25;;;2.25;;
65206;SDS011;58477;48.072;11.970;2023-07-16T06:30:31;2.50;;;2.30;;
65206;SDS011;58477;48.072;11.970;2023-07-16T06:32:58;4.03;;;2.50;;
65206;SDS011;58477;48.072;11.970;2023-07-16T06:35:24;3.90;;;2.63;;
65206;SDS011;58477;48.072;11.970;2023-07-16T06:37:49;3.72;;;2.22;;
65206;SDS011;58477;48.072;11.970;2023-07-16T06:40:15;2.70;;;2.50;;
65206;SDS011;58477;48.072;11.970;2023-07-16T06:42:40;2.58;;;2.13;;
65206;SDS011;58477;48.072;11.970;2023-07-16T06:45:06;2.08;;;1.88;;
65206;SDS011;58477;48.072;11.970;2023-07-16T06:47:32;2.47;;;2.25;;
65206;SDS011;58477;48.072;11.970;2023-07-16T06:49:57;7.05;;;2.38;;
65206;SDS011;58477;48.072;11.970;2023-07-16T06:52:23;3.30;;;2.33;;
65206;SDS011;58477;48.072;11.970;2023-07-16T06:54:53;2.60;;;2.35;;
65206;SDS011;58477;48.072;11.970;2023-07-16T06:57:19;3.25;;;2.05;;
65206;SDS011;58477;48.072;11.970;2023-07-16T06:59:44;1.83;;;1.70;;
65206;SDS011;58477;48.072;11.970;2023-07-16T07:02:10;2.30;;;2.10;;
65206;SDS011;58477;48.072;11.970;2023-07-16T07:04:37;3.40;;;1.80;;
65206;SDS011;58477;48.072;11.970;2023-07-16T07:07:03;1.50;;;1.40;;
65206;SDS011;58477;48.072;11.970;2023-07-16T07:09:29;2.15;;;1.65;;
65206;SDS011;58477;48.072;11.970;2023-07-16T07:11:54;1.50;;;1.40;;
65206;SDS011;58477;48.072;11.970;2023-07-16T07:14:19;2.65;;;1.42;;
65206;SDS011;58477;48.072;11.970;2023-07-16T07:16:45;2.15;;;1.42;;
65206;SDS011;58477;48.072;11.970;2023-07-16T07:19:10;1.38;;;1.02;;
65206;SDS011;58477;48.072;11.970;2023-07-16T07:21:36;1.50;;;1.25;;
65206;SDS011;58477;48.072;11.970;2023-07-16T07:24:01;1.95;;;1.40;;
65206;SDS011;58477;48.072;11.970;2023-07-16T07:26:27;2.97;;;1.40;;
65206;SDS011;58477;48.072;11.970;2023-07-16T07:28:52;1.08;;;1.02;;
65206;SDS011;58477;48.072;11.970;2023-07-16T07:31:18;1.90;;;1.40;;
65206;SDS011;58477;48.072;11.970;2023-07-16T07:33:43;1.38;;;1.25;;
65206;SDS011;58477;48.072;11.970;2023-07-16T07:36:09;1.77;;;1.30;;
65206;SDS011;58477;48.072;11.970;2023-07-16T07:38:34;1.55;;;1.40;;
65206;SDS011;58477;48.072;11.970;2023-07-16T07:41:00;1.23;;;1.13;;
65206;SDS011;58477;48.072;11.970;2023-07-16T07:43:25;0.93;;;0.93;;
65206;SDS011;58477;48.072;11.970;2023-07-16T07:45:52;1.23;;;1.10;;
65206;SDS011;58477;48.072;11.970;2023-07-16T07:48:17;1.58;;;1.08;;
65206;SDS011;58477;48.072;11.970;2023-07-16T07:50:43;1.17;;;1.10;;
65206;SDS011;58477;48.072;11.970;2023-07-16T07:53:08;2.03;;;1.10;;
65206;SDS011;58477;48.072;11.970;2023-07-16T07:55:34;3.60;;;0.98;;
65206;SDS011;58477;48.072;11.970;2023-07-16T07:58:02;0.70;;;0.70;;
65206;SDS011;58477;48.072;11.970;2023-07-16T08:00:28;0.98;;;0.85;;
65206;SDS011;58477;48.072;11.970;2023-07-16T08:02:54;0.80;;;0.80;;
65206;SDS011;58477;48.072;11.970;2023-07-16T08:05:19;1.20;;;1.10;;
65206;SDS011;58477;48.072;11.970;2023-07-16T08:07:45;5.35;;;1.13;;
65206;SDS011;58477;48.072;11.970;2023-07-16T08:10:10;1.10;;;1.00;;
65206;SDS011;58477;48.072;11.970;2023-07-16T08:12:35;8.57;;;1.00;;
65206;SDS011;58477;48.072;11.970;2023-07-16T08:15:01;4.60;;;1.40;;
65206;SDS011;58477;48.072;11.970;2023-07-16T08:17:26;1.23;;;1.13;;
65206;SDS011;58477;48.072;11.970;2023-07-16T08:19:52;1.00;;;0.90;;
65206;SDS011;58477;48.072;11.970;2023-07-16T08:22:17;1.00;;;0.90;;
65206;SDS011;58477;48.072;11.970;2023-07-16T08:24:43;0.63;;;0.63;;
65206;SDS011;58477;48.072;11.970;2023-07-16T08:27:08;1.15;;;0.98;;
65206;SDS011;58477;48.072;11.970;2023-07-16T08:29:35;0.77;;;0.77;;
65206;SDS011;58477;48.072;11.970;2023-07-16T08:32:01;1.15;;;0.80;;
65206;SDS011;58477;48.072;11.970;2023-07-16T08:34:28;1.00;;;0.90;;
65206;SDS011;58477;48.072;11.970;2023-07-16T08:36:53;2.60;;;1.10;;
65206;SDS011;58477;48.072;11.970;2023-07-16T08:39:19;1.00;;;0.90;;
65206;SDS011;58477;48.072;11.970;2023-07-16T08:41:45;2.10;;;1.25;;
65206;SDS011;58477;48.072;11.970;2023-07-16T08:44:11;0.82;;;0.82;;
65206;SDS011;58477;48.072;11.970;2023-07-16T08:46:37;1.05;;;0.90;;
65206;SDS011;58477;48.072;11.970;2023-07-16T08:49:04;0.77;;;0.70;;
65206;SDS011;58477;48.072;11.970;2023-07-16T08:51:31;0.95;;;0.63;;
65206;SDS011;58477;48.072;11.970;2023-07-16T08:53:57;0.80;;;0.80;;
65206;SDS011;58477;48.072;11.970;2023-07-16T08:56:22;0.90;;;0.90;;
65206;SDS011;58477;48.072;11.970;2023-07-16T08:58:48;0.70;;;0.70;;
65206;SDS011;58477;48.072;11.970;2023-07-16T09:01:14;0.70;;;0.70;;
65206;SDS011;58477;48.072;11.970;2023-07-16T09:03:42;1.75;;;0.77;;
65206;SDS011;58477;48.072;11.970;2023-07-16T09:06:07;0.93;;;0.73;;
65206;SDS011;58477;48.072;11.970;2023-07-16T09:08:33;6.30;;;1.70;;
65206;SDS011;58477;48.072;11.970;2023-07-16T09:10:58;0.95;;;0.95;;
65206;SDS011;58477;48.072;11.970;2023-07-16T09:13:24;0.80;;;0.80;;
65206;SDS011;58477;48.072;11.970;2023-07-16T09:15:57;0.90;;;0.80;;
65206;SDS011;58477;48.072;11.970;2023-07-16T09:18:26;0.98;;;0.90;;
65206;SDS011;58477;48.072;11.970;2023-07-16T09:20:56;0.70;;;0.70;;
65206;SDS011;58477;48.072;11.970;2023-07-16T09:23:29;1.33;;;0.80;;
65206;SDS011;58477;48.072;11.970;2023-07-16T09:25:55;1.08;;;0.80;;
65206;SDS011;58477;48.072;11.970;2023-07-16T09:28:21;0.80;;;0.80;;
65206;SDS011;58477;48.072;11.970;2023-07-16T09:30:47;0.80;;;0.80;;
65206;SDS011;58477;48.072;11.970;2023-07-16T09:33:14;2.88;;;1.23;;
65206;SDS011;58477;48.072;11.970;2023-07-16T09:35:41;0.80;;;0.80;;
65206;SDS011;58477;48.072;11.970;2023-07-16T09:38:08;0.80;;;0.80;;
65206;SDS011;58477;48.072;11.970;2023-07-16T09:40:37;0.80;;;0.80;;
65206;SDS011;58477;48.072;11.970;2023-07-16T09:43:03;0.90;;;0.90;;
65206;SDS011;58477;48.072;11.970;2023-07-16T09:45:30;0.88;;;0.88;;
65206;SDS011;58477;48.072;11.970;2023-07-16T09:47:56;0.75;;;0.70;;
65206;SDS011;58477;48.072;11.970;2023-07-16T09:50:24;1.00;;;1.00;;
65206;SDS011;58477;48.072;11.970;2023-07-16T09:52:53;1.00;;;1.00;;
65206;SDS011;58477;48.072;11.970;2023-07-16T09:55:21;1.67;;;0.90;;
65206;SDS011;58477;48.072;11.970;2023-07-16T09:57:48;0.80;;;0.80;;
65206;SDS011;58477;48.072;11.970;2023-07-16T10:00:15;1.42;;;0.88;;
65206;SDS011;58477;48.072;11.970;2023-07-16T10:02:42;0.95;;;0.77;;
65206;SDS011;58477;48.072;11.970;2023-07-16T10:05:13;0.80;;;0.80;;
65206;SDS011;58477;48.072;11.970;2023-07-16T10:07:39;2.35;;;1.10;;
65206;SDS011;58477;48.072;11.970;2023-07-16T10:10:07;0.80;;;0.80;;
65206;SDS011;58477;48.072;11.970;2023-07-16T10:12:34;0.90;;;0.90;;
65206;SDS011;58477;48.072;11.970;2023-07-16T10:15:00;0.85;;;0.85;;
65206;SDS011;58477;48.072;11.970;2023-07-16T10:17:30;1.63;;;1.02;;
65206;SDS011;58477;48.072;11.970;2023-07-16T10:22:33;1.17;;;1.08;;
65206;SDS011;58477;48.072;11.970;2023-07-16T10:25:01;0.95;;;0.88;;
65206;SDS011;58477;48.072;11.970;2023-07-16T10:27:27;1.00;;;1.00;;
65206;SDS011;58477;48.072;11.970;2023-07-16T10:29:54;2.53;;;1.10;;
65206;SDS011;58477;48.072;11.970;2023-07-16T10:32:20;2.05;;;1.20;;
65206;SDS011;58477;48.072;11.970;2023-07-16T10:34:46;1.83;;;0.93;;
65206;SDS011;58477;48.072;11.970;2023-07-16T10:37:11;1.27;;;1.00;;
65206;SDS011;58477;48.072;11.970;2023-07-16T10:39:45;1.05;;;0.82;;
65206;SDS011;58477;48.072;11.970;2023-07-16T10:42:12;0.77;;;0.77;;
65206;SDS011;58477;48.072;11.970;2023-07-16T10:44:37;0.90;;;0.90;;
65206;SDS011;58477;48.072;11.970;2023-07-16T10:47:05;0.70;;;0.70;;
65206;SDS011;58477;48.072;11.970;2023-07-16T10:49:30;0.88;;;0.88;;
65206;SDS011;58477;48.072;11.970;2023-07-16T10:51:57;0.88;;;0.88;;
65206;SDS011;58477;48.072;11.970;2023-07-16T10:54:25;1.90;;;1.20;;
65206;SDS011;58477;48.072;11.970;2023-07-16T10:56:51;0.70;;;0.70;;
65206;SDS011;58477;48.072;11.970;2023-07-16T10:59:17;1.13;;;0.85;;
65206;SDS011;58477;48.072;11.970;2023-07-16T11:01:43;0.68;;;0.68;;
65206;SDS011;58477;48.072;11.970;2023-07-16T11:04:08;0.70;;;0.70;;
65206;SDS011;58477;48.072;11.970;2023-07-16T11:06:34;0.80;;;0.80;;
65206;SDS011;58477;48.072;11.970;2023-07-16T11:09:10;0.68;;;0.68;;
65206;SDS011;58477;48.072;11.970;2023-07-16T11:11:36;0.80;;;0.80;;
65206;SDS011;58477;48.072;11.970;2023-07-16T11:14:05;0.82;;;0.82;;
65206;SDS011;58477;48.072;11.970;2023-07-16T11:16:35;1.40;;;0.90;;
65206;SDS011;58477;48.072;11.970;2023-07-16T11:19:05;0.80;;;0.80;;
65206;SDS011;58477;48.072;11.970;2023-07-16T11:21:32;1.17;;;0.90;;
65206;SDS011;58477;48.072;11.970;2023-07-16T11:24:13;3.30;;;3.00;;
65206;SDS011;58477;48.072;11.970;2023-07-16T11:26:49;0.80;;;0.80;;
65206;SDS011;58477;48.072;11.970;2023-07-16T11:29:15;0.93;;;0.90;;
65206;SDS011;58477;48.072;11.970;2023-07-16T11:31:41;1.85;;;1.30;;
65206;SDS011;58477;48.072;11.970;2023-07-16T11:34:06;0.77;;;0.77;;
65206;SDS011;58477;48.072;11.970;2023-07-16T11:36:33;1.00;;;1.00;;
65206;SDS011;58477;48.072;11.970;2023-07-16T11:38:58;1.55;;;0.65;;
65206;SDS011;58477;48.072;11.970;2023-07-16T11:41:24;1.48;;;0.75;;
65206;SDS011;58477;48.072;11.970;2023-07-16T11:43:49;0.80;;;0.80;;
65206;SDS011;58477;48.072;11.970;2023-07-16T11:46:16;0.93;;;0.80;;
65206;SDS011;58477;48.072;11.970;2023-07-16T11:48:42;1.73;;;0.93;;
65206;SDS011;58477;48.072;11.970;2023-07-16T11:51:08;1.58;;;0.80;;
65206;SDS011;58477;48.072;11.970;2023-07-16T11:53:33;0.85;;;0.85;;
65206;SDS011;58477;48.072;11.970;2023-07-16T11:55:59;0.68;;;0.68;;
65206;SDS011;58477;48.072;11.970;2023-07-16T11:58:24;0.80;;;0.75;;
65206;SDS011;58477;48.072;11.970;2023-07-16T12:00:50;0.80;;;0.80;;
65206;SDS011;58477;48.072;11.970;2023-07-16T12:03:16;0.98;;;0.80;;
65206;SDS011;58477;48.072;11.970;2023-07-16T12:05:42;1.17;;;0.90;;
65206;SDS011;58477;48.072;11.970;2023-07-16T12:08:07;1.90;;;0.88;;
65206;SDS011;58477;48.072;11.970;2023-07-16T12:10:39;1.10;;;0.90;;
65206;SDS011;58477;48.072;11.970;2023-07-16T12:13:05;1.92;;;1.00;;
65206;SDS011;58477;48.072;11.970;2023-07-16T12:15:30;0.90;;;0.90;;
65206;SDS011;58477;48.072;11.970;2023-07-16T12:17:56;0.70;;;0.70;;
65206;SDS011;58477;48.072;11.970;2023-07-16T12:20:21;1.27;;;0.85;;
65206;SDS011;58477;48.072;11.970;2023-07-16T12:22:47;1.10;;;0.75;;
65206;SDS011;58477;48.072;11.970;2023-07-16T12:25:12;1.23;;;0.90;;
65206;SDS011;58477;48.072;11.970;2023-07-16T12:27:37;0.93;;;0.93;;
65206;SDS011;58477;48.072;11.970;2023-07-16T12:30:03;0.88;;;0.88;;
65206;SDS011;58477;48.072;11.970;2023-07-16T12:32:29;1.40;;;1.00;;
65206;SDS011;58477;48.072;11.970;2023-07-16T12:34:54;1.10;;;1.00;;
65206;SDS011;58477;48.072;11.970;2023-07-16T12:37:20;1.15;;;0.90;;
65206;SDS011;58477;48.072;11.970;2023-07-16T12:39:45;1.10;;;1.00;;
65206;SDS011;58477;48.072;11.970;2023-07-16T12:42:11;2.17;;;1.05;;
65206;SDS011;58477;48.072;11.970;2023-07-16T12:44:36;1.10;;;1.02;;
65206;SDS011;58477;48.072;11.970;2023-07-16T12:47:02;1.35;;;1.25;;
65206;SDS011;58477;48.072;11.970;2023-07-16T12:49:27;1.20;;;1.10;;
65206;SDS011;58477;48.072;11.970;2023-07-16T12:51:52;1.20;;;1.10;;
65206;SDS011;58477;48.072;11.970;2023-07-16T12:54:18;1.10;;;1.00;;
65206;SDS011;58477;48.072;11.970;2023-07-16T12:56:43;1.75;;;1.50;;
65206;SDS011;58477;48.072;11.970;2023-07-16T12:59:09;1.20;;;1.20;;
65206;SDS011;58477;48.072;11.970;2023-07-16T13:01:34;2.25;;;1.30;;
65206;SDS011;58477;48.072;11.970;2023-07-16T13:04:00;1.48;;;1.38;;
65206;SDS011;58477;48.072;11.970;2023-07-16T13:06:25;1.50;;;1.20;;
65206;SDS011;58477;48.072;11.970;2023-07-16T13:08:50;1.40;;;1.30;;
65206;SDS011;58477;48.072;11.970;2023-07-16T13:11:16;1.70;;;1.60;;
65206;SDS011;58477;48.072;11.970;2023-07-16T13:13:41;1.30;;;1.20;;
65206;SDS011;58477;48.072;11.970;2023-07-16T13:16:08;2.65;;;1.35;;
65206;SDS011;58477;48.072;11.970;2023-07-16T13:18:34;1.55;;;1.40;;
65206;SDS011;58477;48.072;11.970;2023-07-16T13:20:59;1.13;;;1.13;;
65206;SDS011;58477;48.072;11.970;2023-07-16T13:23:25;1.40;;;1.30;;
65206;SDS011;58477;48.072;11.970;2023-07-16T13:25:50;2.92;;;1.40;;
65206;SDS011;58477;48.072;11.970;2023-07-16T13:28:17;1.17;;;1.10;;
65206;SDS011;58477;48.072;11.970;2023-07-16T13:30:43;1.60;;;1.50;;
65206;SDS011;58477;48.072;11.970;2023-07-16T13:33:08;2.38;;;1.30;;
65206;SDS011;58477;48.072;11.970;2023-07-16T13:35:34;1.48;;;1.38;;
65206;SDS011;58477;48.072;11.970;2023-07-16T13:37:59;2.22;;;1.75;;
65206;SDS011;58477;48.072;11.970;2023-07-16T13:40:26;1.20;;;1.10;;
65206;SDS011;58477;48.072;11.970;2023-07-16T13:42:51;1.45;;;1.30;;
65206;SDS011;58477;48.072;11.970;2023-07-16T13:45:18;1.42;;;1.30;;
65206;SDS011;58477;48.072;11.970;2023-07-16T13:47:44;1.33;;;1.23;;
65206;SDS011;58477;48.072;11.970;2023-07-16T13:50:10;1.20;;;1.08;;
65206;SDS011;58477;48.072;11.970;2023-07-16T13:52:35;1.35;;;1.20;;
65206;SDS011;58477;48.072;11.970;2023-07-16T13:55:01;1.08;;;1.05;;
65206;SDS011;58477;48.072;11.970;2023-07-16T13:57:29;1.02;;;1.02;;
65206;SDS011;58477;48.072;11.970;2023-07-16T13:59:54;1.40;;;1.30;;
65206;SDS011;58477;48.072;11.970;2023-07-16T14:02:20;2.13;;;1.52;;
65206;SDS011;58477;48.072;11.970;2023-07-16T14:04:46;7.22;;;1.55;;
65206;SDS011;58477;48.072;11.970;2023-07-16T14:07:11;1.50;;;1.40;;
65206;SDS011;58477;48.072;11.970;2023-07-16T14:09:37;2.08;;;1.50;;
65206;SDS011;58477;48.072;11.970;2023-07-16T14:12:02;1.42;;;1.25;;
65206;SDS011;58477;48.072;11.970;2023-07-16T14:14:28;1.60;;;1.33;;
65206;SDS011;58477;48.072;11.970;2023-07-16T14:16:54;1.60;;;1.50;;
65206;SDS011;58477;48.072;11.970;2023-07-16T14:19:20;1.60;;;1.50;;
65206;SDS011;58477;48.072;11.970;2023-07-16T14:21:46;3.63;;;1.48;;
65206;SDS011;58477;48.072;11.970;2023-07-16T14:24:12;1.25;;;1.13;;
65206;SDS011;58477;48.072;11.970;2023-07-16T14:26:37;1.40;;;1.30;;
65206;SDS011;58477;48.072;11.970;2023-07-16T14:29:03;1.75;;;1.23;;
65206;SDS011;58477;48.072;11.970;2023-07-16T14:31:29;1.90;;;1.40;;
65206;SDS011;58477;48.072;11.970;2023-07-16T14:33:54;1.48;;;1.38;;
65206;SDS011;58477;48.072;11.970;2023-07-16T14:36:20;2.65;;;1.40;;